KCPR

Casper / Natrona County International Airport

Casper, Wyoming, USA
METAR KCPR 221453Z 04005KT 10SM CLR 16/09 A3004 RMK AO2 SLP122 T01560094 53005
Observed Flight Rules
May-22 @ 14:53 UTC (32 minutes ago) Visual Flight Rules
Wind Visibility Clouds
40° at 5 knots 10 miles
  • Clear skies
Temperatures Readings
Current 16°C / 61°F
Dewpoint 9°C / 48°F
Humidity 63%
Altimeter 30.04" Hg
Pressure 1012.2 hPa
Elevation 1621
METAR KCPR 221453Z 04005KT 10SM CLR 16/09 A3004 RMK AO2 SLP122 T01560094 53005
Observed Flight Rules
May-22 @ 14:53 UTC
(32 minutes ago)
VFR
Wind Visibility
40° at 5 knots 10 miles
Clouds
  • Clear skies
Temperature Dewpoint
16°C / 61°F 9°C / 48°F
Humidity Altimeter Pressure
63% 30.04" Hg 1012.2 hPa